sensor_id;sensor_type;location;lat;lon;timestamp;temperature;humidity
61765;DHT22;50188;48.114;-1.388;2022-11-15T00:01:24;11.70;96.20
61765;DHT22;50188;48.114;-1.388;2022-11-15T00:03:53;11.70;96.10
61765;DHT22;50188;48.114;-1.388;2022-11-15T00:06:18;11.70;96.10
61765;DHT22;50188;48.114;-1.388;2022-11-15T00:08:44;11.70;96.10
61765;DHT22;50188;48.114;-1.388;2022-11-15T00:11:11;11.70;96.20
61765;DHT22;50188;48.114;-1.388;2022-11-15T00:13:37;11.70;96.10
61765;DHT22;50188;48.114;-1.388;2022-11-15T00:16:03;11.70;96.10
61765;DHT22;50188;48.114;-1.388;2022-11-15T00:18:29;11.60;96.10
61765;DHT22;50188;48.114;-1.388;2022-11-15T00:20:56;11.70;96.10
61765;DHT22;50188;48.114;-1.388;2022-11-15T00:23:27;11.70;96.10
61765;DHT22;50188;48.114;-1.388;2022-11-15T00:25:57;11.70;96.20
61765;DHT22;50188;48.114;-1.388;2022-11-15T00:28:23;11.70;96.20
61765;DHT22;50188;48.114;-1.388;2022-11-15T00:30:48;11.70;96.10
61765;DHT22;50188;48.114;-1.388;2022-11-15T00:33:14;11.70;96.10
61765;DHT22;50188;48.114;-1.388;2022-11-15T00:35:39;11.70;96.10
61765;DHT22;50188;48.114;-1.388;2022-11-15T00:38:05;11.80;96.10
61765;DHT22;50188;48.114;-1.388;2022-11-15T00:40:30;11.80;96.10
61765;DHT22;50188;48.114;-1.388;2022-11-15T00:42:56;11.80;96.00
61765;DHT22;50188;48.114;-1.388;2022-11-15T00:45:22;11.80;96.00
61765;DHT22;50188;48.114;-1.388;2022-11-15T00:47:48;11.80;96.10
61765;DHT22;50188;48.114;-1.388;2022-11-15T00:50:14;11.80;96.00
61765;DHT22;50188;48.114;-1.388;2022-11-15T00:52:39;11.80;96.00
61765;DHT22;50188;48.114;-1.388;2022-11-15T00:55:05;11.80;96.00
61765;DHT22;50188;48.114;-1.388;2022-11-15T00:57:31;11.80;96.10
61765;DHT22;50188;48.114;-1.388;2022-11-15T00:59:56;11.80;96.10
61765;DHT22;50188;48.114;-1.388;2022-11-15T01:02:22;11.80;96.20
61765;DHT22;50188;48.114;-1.388;2022-11-15T01:04:47;11.80;96.20
61765;DHT22;50188;48.114;-1.388;2022-11-15T01:07:13;11.80;96.30
61765;DHT22;50188;48.114;-1.388;2022-11-15T01:09:39;11.80;96.30
61765;DHT22;50188;48.114;-1.388;2022-11-15T01:12:04;11.80;96.30
61765;DHT22;50188;48.114;-1.388;2022-11-15T01:14:30;11.80;96.40
61765;DHT22;50188;48.114;-1.388;2022-11-15T01:16:55;11.80;96.40
61765;DHT22;50188;48.114;-1.388;2022-11-15T01:19:21;11.80;96.40
61765;DHT22;50188;48.114;-1.388;2022-11-15T01:21:49;11.80;96.40
61765;DHT22;50188;48.114;-1.388;2022-11-15T01:24:15;11.90;96.50
61765;DHT22;50188;48.114;-1.388;2022-11-15T01:26:41;11.80;96.40
61765;DHT22;50188;48.114;-1.388;2022-11-15T01:29:07;11.90;96.40
61765;DHT22;50188;48.114;-1.388;2022-11-15T01:31:32;11.90;96.30
61765;DHT22;50188;48.114;-1.388;2022-11-15T01:33:58;11.90;96.40
61765;DHT22;50188;48.114;-1.388;2022-11-15T01:36:24;11.90;96.30
61765;DHT22;50188;48.114;-1.388;2022-11-15T01:38:54;11.90;96.30
61765;DHT22;50188;48.114;-1.388;2022-11-15T01:41:27;11.90;96.40
61765;DHT22;50188;48.114;-1.388;2022-11-15T01:43:56;11.90;96.30
61765;DHT22;50188;48.114;-1.388;2022-11-15T01:46:28;11.90;96.20
61765;DHT22;50188;48.114;-1.388;2022-11-15T01:48:57;11.90;96.20
61765;DHT22;50188;48.114;-1.388;2022-11-15T01:51:26;11.90;96.50
61765;DHT22;50188;48.114;-1.388;2022-11-15T01:53:57;11.90;96.70
61765;DHT22;50188;48.114;-1.388;2022-11-15T01:56:27;11.90;96.40
61765;DHT22;50188;48.114;-1.388;2022-11-15T01:58:56;11.90;96.30
61765;DHT22;50188;48.114;-1.388;2022-11-15T02:01:24;11.90;96.30
61765;DHT22;50188;48.114;-1.388;2022-11-15T02:04:13;12.00;96.30
61765;DHT22;50188;48.114;-1.388;2022-11-15T02:06:42;12.00;96.40
61765;DHT22;50188;48.114;-1.388;2022-11-15T02:09:08;11.90;96.30
61765;DHT22;50188;48.114;-1.388;2022-11-15T02:11:34;11.90;96.30
61765;DHT22;50188;48.114;-1.388;2022-11-15T02:14:01;12.00;96.40
61765;DHT22;50188;48.114;-1.388;2022-11-15T02:16:48;12.00;96.50
61765;DHT22;50188;48.114;-1.388;2022-11-15T02:19:41;12.00;96.50
61765;DHT22;50188;48.114;-1.388;2022-11-15T02:22:42;12.00;96.60
61765;DHT22;50188;48.114;-1.388;2022-11-15T02:25:39;12.00;96.50
61765;DHT22;50188;48.114;-1.388;2022-11-15T02:28:29;12.00;96.60
61765;DHT22;50188;48.114;-1.388;2022-11-15T02:34:05;12.00;96.70
61765;DHT22;50188;48.114;-1.388;2022-11-15T02:36:54;12.00;96.70
61765;DHT22;50188;48.114;-1.388;2022-11-15T02:39:34;12.00;96.70
61765;DHT22;50188;48.114;-1.388;2022-11-15T02:42:21;12.00;96.70
61765;DHT22;50188;48.114;-1.388;2022-11-15T02:45:11;12.00;96.80
61765;DHT22;50188;48.114;-1.388;2022-11-15T02:47:44;12.00;96.90
61765;DHT22;50188;48.114;-1.388;2022-11-15T02:50:13;12.00;96.90
61765;DHT22;50188;48.114;-1.388;2022-11-15T02:52:41;12.00;96.90
61765;DHT22;50188;48.114;-1.388;2022-11-15T02:55:33;12.00;96.90
61765;DHT22;50188;48.114;-1.388;2022-11-15T02:58:44;12.00;96.90
61765;DHT22;50188;48.114;-1.388;2022-11-15T03:01:04;12.00;96.90
61765;DHT22;50188;48.114;-1.388;2022-11-15T03:03:49;12.00;97.00
61765;DHT22;50188;48.114;-1.388;2022-11-15T03:06:35;12.00;97.50
61765;DHT22;50188;48.114;-1.388;2022-11-15T03:12:27;12.00;97.20
61765;DHT22;50188;48.114;-1.388;2022-11-15T03:15:05;12.00;97.20
61765;DHT22;50188;48.114;-1.388;2022-11-15T03:17:43;12.00;97.30
61765;DHT22;50188;48.114;-1.388;2022-11-15T03:20:11;12.00;97.40
61765;DHT22;50188;48.114;-1.388;2022-11-15T03:22:42;12.00;97.40
61765;DHT22;50188;48.114;-1.388;2022-11-15T03:25:12;12.00;97.50
61765;DHT22;50188;48.114;-1.388;2022-11-15T03:27:44;12.00;97.60
61765;DHT22;50188;48.114;-1.388;2022-11-15T03:30:12;12.00;97.60
61765;DHT22;50188;48.114;-1.388;2022-11-15T03:32:53;12.00;97.70
61765;DHT22;50188;48.114;-1.388;2022-11-15T03:35:22;12.00;97.80
61765;DHT22;50188;48.114;-1.388;2022-11-15T03:38:05;12.00;97.90
61765;DHT22;50188;48.114;-1.388;2022-11-15T03:40:42;12.00;97.90
61765;DHT22;50188;48.114;-1.388;2022-11-15T03:43:29;12.00;98.10
61765;DHT22;50188;48.114;-1.388;2022-11-15T03:46:00;12.00;98.20
61765;DHT22;50188;48.114;-1.388;2022-11-15T03:48:30;12.00;98.20
61765;DHT22;50188;48.114;-1.388;2022-11-15T03:50:59;12.00;98.30
61765;DHT22;50188;48.114;-1.388;2022-11-15T03:53:25;12.00;98.40
61765;DHT22;50188;48.114;-1.388;2022-11-15T03:55:50;12.10;98.60
61765;DHT22;50188;48.114;-1.388;2022-11-15T03:58:16;12.10;98.60
61765;DHT22;50188;48.114;-1.388;2022-11-15T04:00:42;12.10;98.60
61765;DHT22;50188;48.114;-1.388;2022-11-15T04:03:07;12.10;98.50
61765;DHT22;50188;48.114;-1.388;2022-11-15T04:05:33;12.10;98.60
61765;DHT22;50188;48.114;-1.388;2022-11-15T04:07:59;12.10;98.90
61765;DHT22;50188;48.114;-1.388;2022-11-15T04:10:24;12.20;99.20
61765;DHT22;50188;48.114;-1.388;2022-11-15T04:12:50;12.10;99.30
61765;DHT22;50188;48.114;-1.388;2022-11-15T04:15:18;12.20;99.30
61765;DHT22;50188;48.114;-1.388;2022-11-15T04:17:53;12.10;99.40
61765;DHT22;50188;48.114;-1.388;2022-11-15T04:20:25;12.20;99.50
61765;DHT22;50188;48.114;-1.388;2022-11-15T04:23:14;12.20;99.60
61765;DHT22;50188;48.114;-1.388;2022-11-15T04:26:04;12.20;99.70
61765;DHT22;50188;48.114;-1.388;2022-11-15T04:28:30;12.20;99.90
61765;DHT22;50188;48.114;-1.388;2022-11-15T04:30:56;12.20;99.80
61765;DHT22;50188;48.114;-1.388;2022-11-15T04:33:22;12.20;99.90
61765;DHT22;50188;48.114;-1.388;2022-11-15T04:35:48;12.20;99.90
61765;DHT22;50188;48.114;-1.388;2022-11-15T04:38:34;12.20;99.90
61765;DHT22;50188;48.114;-1.388;2022-11-15T04:41:00;12.20;99.90
61765;DHT22;50188;48.114;-1.388;2022-11-15T04:43:26;12.30;99.90
61765;DHT22;50188;48.114;-1.388;2022-11-15T04:45:51;12.30;99.90
61765;DHT22;50188;48.114;-1.388;2022-11-15T04:48:17;12.30;99.90
61765;DHT22;50188;48.114;-1.388;2022-11-15T04:50:42;12.30;99.90
61765;DHT22;50188;48.114;-1.388;2022-11-15T04:53:08;12.30;99.90
61765;DHT22;50188;48.114;-1.388;2022-11-15T04:55:33;12.30;99.90
61765;DHT22;50188;48.114;-1.388;2022-11-15T04:58:00;12.30;99.90
61765;DHT22;50188;48.114;-1.388;2022-11-15T05:00:28;12.30;99.90
61765;DHT22;50188;48.114;-1.388;2022-11-15T05:02:54;12.30;99.90
61765;DHT22;50188;48.114;-1.388;2022-11-15T05:05:41;12.40;99.90
61765;DHT22;50188;48.114;-1.388;2022-11-15T05:08:06;12.40;99.90
61765;DHT22;50188;48.114;-1.388;2022-11-15T05:10:32;12.40;99.90
61765;DHT22;50188;48.114;-1.388;2022-11-15T05:12:58;12.40;99.90
61765;DHT22;50188;48.114;-1.388;2022-11-15T05:15:23;12.40;99.90
61765;DHT22;50188;48.114;-1.388;2022-11-15T05:17:49;12.40;99.90
61765;DHT22;50188;48.114;-1.388;2022-11-15T05:20:14;12.50;99.90
61765;DHT22;50188;48.114;-1.388;2022-11-15T05:22:40;12.50;99.90
61765;DHT22;50188;48.114;-1.388;2022-11-15T05:25:06;12.50;99.90
61765;DHT22;50188;48.114;-1.388;2022-11-15T05:27:33;12.50;99.90
61765;DHT22;50188;48.114;-1.388;2022-11-15T05:29:58;12.50;99.90
61765;DHT22;50188;48.114;-1.388;2022-11-15T05:32:24;12.50;99.90
61765;DHT22;50188;48.114;-1.388;2022-11-15T05:34:50;12.50;99.90
61765;DHT22;50188;48.114;-1.388;2022-11-15T05:37:16;12.40;99.90
61765;DHT22;50188;48.114;-1.388;2022-11-15T05:39:42;12.50;99.90
61765;DHT22;50188;48.114;-1.388;2022-11-15T05:42:11;12.50;99.90
61765;DHT22;50188;48.114;-1.388;2022-11-15T05:44:39;12.50;99.90
61765;DHT22;50188;48.114;-1.388;2022-11-15T05:47:09;12.50;99.90
61765;DHT22;50188;48.114;-1.388;2022-11-15T05:49:38;12.40;99.90
61765;DHT22;50188;48.114;-1.388;2022-11-15T05:52:07;12.40;99.90
61765;DHT22;50188;48.114;-1.388;2022-11-15T05:54:34;12.40;99.90
61765;DHT22;50188;48.114;-1.388;2022-11-15T05:57:00;12.50;99.90
61765;DHT22;50188;48.114;-1.388;2022-11-15T05:59:27;12.50;99.90
61765;DHT22;50188;48.114;-1.388;2022-11-15T06:01:53;12.50;99.90
61765;DHT22;50188;48.114;-1.388;2022-11-15T06:04:19;12.50;99.90
61765;DHT22;50188;48.114;-1.388;2022-11-15T06:06:44;12.50;99.90
61765;DHT22;50188;48.114;-1.388;2022-11-15T06:09:10;12.50;99.90
61765;DHT22;50188;48.114;-1.388;2022-11-15T06:11:35;12.50;99.90
61765;DHT22;50188;48.114;-1.388;2022-11-15T06:14:01;12.50;99.90
61765;DHT22;50188;48.114;-1.388;2022-11-15T06:16:27;12.50;99.90
61765;DHT22;50188;48.114;-1.388;2022-11-15T06:18:52;12.50;99.90
61765;DHT22;50188;48.114;-1.388;2022-11-15T06:21:18;12.50;99.90
61765;DHT22;50188;48.114;-1.388;2022-11-15T06:23:43;12.50;99.90
61765;DHT22;50188;48.114;-1.388;2022-11-15T06:26:09;12.50;99.90
61765;DHT22;50188;48.114;-1.388;2022-11-15T06:28:34;12.50;99.90
61765;DHT22;50188;48.114;-1.388;2022-11-15T06:31:08;12.50;99.90
61765;DHT22;50188;48.114;-1.388;2022-11-15T06:33:34;12.50;99.90
61765;DHT22;50188;48.114;-1.388;2022-11-15T06:36:02;12.50;99.90
61765;DHT22;50188;48.114;-1.388;2022-11-15T06:38:28;12.60;99.90
61765;DHT22;50188;48.114;-1.388;2022-11-15T06:40:54;12.60;99.90
61765;DHT22;50188;48.114;-1.388;2022-11-15T06:43:20;12.60;99.90
61765;DHT22;50188;48.114;-1.388;2022-11-15T06:45:45;12.60;99.90
61765;DHT22;50188;48.114;-1.388;2022-11-15T06:48:11;12.60;99.90
61765;DHT22;50188;48.114;-1.388;2022-11-15T06:50:36;12.60;99.90
61765;DHT22;50188;48.114;-1.388;2022-11-15T06:53:03;12.60;99.90
61765;DHT22;50188;48.114;-1.388;2022-11-15T06:55:29;12.60;99.90
61765;DHT22;50188;48.114;-1.388;2022-11-15T06:57:54;12.60;99.90
61765;DHT22;50188;48.114;-1.388;2022-11-15T07:00:21;12.60;99.90
61765;DHT22;50188;48.114;-1.388;2022-11-15T07:02:48;12.60;99.90
61765;DHT22;50188;48.114;-1.388;2022-11-15T07:05:14;12.60;99.90
61765;DHT22;50188;48.114;-1.388;2022-11-15T07:07:40;12.60;99.90
61765;DHT22;50188;48.114;-1.388;2022-11-15T07:10:07;12.60;99.90
61765;DHT22;50188;48.114;-1.388;2022-11-15T07:12:33;12.60;99.90
61765;DHT22;50188;48.114;-1.388;2022-11-15T07:14:59;12.60;99.90
61765;DHT22;50188;48.114;-1.388;2022-11-15T07:17:24;12.60;99.90
61765;DHT22;50188;48.114;-1.388;2022-11-15T07:19:50;12.60;99.90
61765;DHT22;50188;48.114;-1.388;2022-11-15T07:22:15;12.50;99.90
61765;DHT22;50188;48.114;-1.388;2022-11-15T07:24:41;12.50;99.90
61765;DHT22;50188;48.114;-1.388;2022-11-15T07:27:07;12.50;99.90
61765;DHT22;50188;48.114;-1.388;2022-11-15T07:29:32;12.50;99.90
61765;DHT22;50188;48.114;-1.388;2022-11-15T07:31:58;12.50;99.90
61765;DHT22;50188;48.114;-1.388;2022-11-15T07:34:24;12.50;99.90
61765;DHT22;50188;48.114;-1.388;2022-11-15T07:36:50;12.50;99.90
61765;DHT22;50188;48.114;-1.388;2022-11-15T07:39:15;12.50;99.90
61765;DHT22;50188;48.114;-1.388;2022-11-15T07:41:41;12.50;99.90
61765;DHT22;50188;48.114;-1.388;2022-11-15T07:44:08;12.50;99.90
61765;DHT22;50188;48.114;-1.388;2022-11-15T07:46:34;12.50;99.90
61765;DHT22;50188;48.114;-1.388;2022-11-15T07:49:00;12.60;99.90
61765;DHT22;50188;48.114;-1.388;2022-11-15T07:51:25;12.60;99.90
61765;DHT22;50188;48.114;-1.388;2022-11-15T07:53:51;12.60;99.90
61765;DHT22;50188;48.114;-1.388;2022-11-15T07:56:17;12.60;99.90
61765;DHT22;50188;48.114;-1.388;2022-11-15T07:58:42;12.60;99.90
61765;DHT22;50188;48.114;-1.388;2022-11-15T08:01:10;12.60;99.90
61765;DHT22;50188;48.114;-1.388;2022-11-15T08:03:36;12.60;99.90
61765;DHT22;50188;48.114;-1.388;2022-11-15T08:06:02;12.60;99.90
61765;DHT22;50188;48.114;-1.388;2022-11-15T08:08:28;12.60;99.90
61765;DHT22;50188;48.114;-1.388;2022-11-15T08:10:54;12.60;99.90
61765;DHT22;50188;48.114;-1.388;2022-11-15T08:13:22;12.60;99.90
61765;DHT22;50188;48.114;-1.388;2022-11-15T08:15:48;12.60;99.90
61765;DHT22;50188;48.114;-1.388;2022-11-15T08:18:15;12.60;99.90
61765;DHT22;50188;48.114;-1.388;2022-11-15T08:20:42;12.60;99.90
61765;DHT22;50188;48.114;-1.388;2022-11-15T08:23:10;12.60;99.90
61765;DHT22;50188;48.114;-1.388;2022-11-15T08:25:35;12.60;99.90
61765;DHT22;50188;48.114;-1.388;2022-11-15T08:28:04;12.60;99.90
61765;DHT22;50188;48.114;-1.388;2022-11-15T08:30:30;12.70;99.90
61765;DHT22;50188;48.114;-1.388;2022-11-15T08:32:57;12.70;99.90
61765;DHT22;50188;48.114;-1.388;2022-11-15T08:35:24;12.70;99.90
61765;DHT22;50188;48.114;-1.388;2022-11-15T08:37:49;12.70;99.90
61765;DHT22;50188;48.114;-1.388;2022-11-15T08:40:15;12.70;99.90
61765;DHT22;50188;48.114;-1.388;2022-11-15T08:42:41;12.70;99.90
61765;DHT22;50188;48.114;-1.388;2022-11-15T08:45:07;12.70;99.90
61765;DHT22;50188;48.114;-1.388;2022-11-15T08:47:34;12.70;99.90
61765;DHT22;50188;48.114;-1.388;2022-11-15T08:50:00;12.70;99.90
61765;DHT22;50188;48.114;-1.388;2022-11-15T08:52:26;12.80;99.90
61765;DHT22;50188;48.114;-1.388;2022-11-15T08:54:51;12.80;99.90
61765;DHT22;50188;48.114;-1.388;2022-11-15T08:57:17;12.80;99.90
61765;DHT22;50188;48.114;-1.388;2022-11-15T08:59:43;12.80;99.90
61765;DHT22;50188;48.114;-1.388;2022-11-15T09:02:13;12.80;99.90
61765;DHT22;50188;48.114;-1.388;2022-11-15T09:04:43;12.80;99.90
61765;DHT22;50188;48.114;-1.388;2022-11-15T09:07:10;12.80;99.90
61765;DHT22;50188;48.114;-1.388;2022-11-15T09:09:36;12.80;99.90
61765;DHT22;50188;48.114;-1.388;2022-11-15T09:12:02;12.80;99.90
61765;DHT22;50188;48.114;-1.388;2022-11-15T09:14:28;12.90;99.90
61765;DHT22;50188;48.114;-1.388;2022-11-15T09:16:54;12.90;99.90
61765;DHT22;50188;48.114;-1.388;2022-11-15T09:19:21;12.90;99.90
61765;DHT22;50188;48.114;-1.388;2022-11-15T09:21:47;12.90;99.90
61765;DHT22;50188;48.114;-1.388;2022-11-15T09:24:12;12.90;99.90
61765;DHT22;50188;48.114;-1.388;2022-11-15T09:26:39;12.90;99.90
61765;DHT22;50188;48.114;-1.388;2022-11-15T09:29:04;13.00;99.90
61765;DHT22;50188;48.114;-1.388;2022-11-15T09:31:30;13.00;99.90
61765;DHT22;50188;48.114;-1.388;2022-11-15T09:33:56;13.10;99.90
61765;DHT22;50188;48.114;-1.388;2022-11-15T09:36:21;13.10;99.90
61765;DHT22;50188;48.114;-1.388;2022-11-15T09:38:47;13.10;99.90
61765;DHT22;50188;48.114;-1.388;2022-11-15T09:47:39;13.20;99.90
61765;DHT22;50188;48.114;-1.388;2022-11-15T09:50:11;13.20;99.90
61765;DHT22;50188;48.114;-1.388;2022-11-15T09:52:39;13.20;99.90
61765;DHT22;50188;48.114;-1.388;2022-11-15T09:55:09;13.30;99.90
61765;DHT22;50188;48.114;-1.388;2022-11-15T09:57:44;13.30;99.90
61765;DHT22;50188;48.114;-1.388;2022-11-15T10:00:21;13.30;99.90
61765;DHT22;50188;48.114;-1.388;2022-11-15T10:03:09;13.30;99.90
61765;DHT22;50188;48.114;-1.388;2022-11-15T10:05:43;13.30;99.90
61765;DHT22;50188;48.114;-1.388;2022-11-15T10:08:35;13.40;99.90
61765;DHT22;50188;48.114;-1.388;2022-11-15T10:11:11;13.40;99.90
61765;DHT22;50188;48.114;-1.388;2022-11-15T10:13:41;13.30;99.90
61765;DHT22;50188;48.114;-1.388;2022-11-15T10:16:36;13.30;99.90
61765;DHT22;50188;48.114;-1.388;2022-11-15T10:19:30;13.30;99.90
61765;DHT22;50188;48.114;-1.388;2022-11-15T10:22:25;13.40;99.90
61765;DHT22;50188;48.114;-1.388;2022-11-15T10:25:10;13.40;99.90
61765;DHT22;50188;48.114;-1.388;2022-11-15T10:27:39;13.40;99.90
61765;DHT22;50188;48.114;-1.388;2022-11-15T10:30:12;13.50;99.90
61765;DHT22;50188;48.114;-1.388;2022-11-15T10:32:39;13.60;99.90
61765;DHT22;50188;48.114;-1.388;2022-11-15T10:35:25;13.70;99.90
61765;DHT22;50188;48.114;-1.388;2022-11-15T10:37:52;13.70;99.90
61765;DHT22;50188;48.114;-1.388;2022-11-15T10:40:29;13.80;99.90
61765;DHT22;50188;48.114;-1.388;2022-11-15T10:43:13;13.80;99.90
61765;DHT22;50188;48.114;-1.388;2022-11-15T10:45:39;13.80;99.90
61765;DHT22;50188;48.114;-1.388;2022-11-15T10:48:21;13.90;99.90
61765;DHT22;50188;48.114;-1.388;2022-11-15T10:50:49;13.90;99.90
61765;DHT22;50188;48.114;-1.388;2022-11-15T10:53:38;14.00;99.90
61765;DHT22;50188;48.114;-1.388;2022-11-15T10:56:08;14.10;99.90
61765;DHT22;50188;48.114;-1.388;2022-11-15T10:58:43;14.20;99.90
61765;DHT22;50188;48.114;-1.388;2022-11-15T11:01:12;14.40;99.90
61765;DHT22;50188;48.114;-1.388;2022-11-15T11:03:39;14.60;99.90
61765;DHT22;50188;48.114;-1.388;2022-11-15T11:06:16;14.80;99.90
61765;DHT22;50188;48.114;-1.388;2022-11-15T11:09:01;14.70;99.90
61765;DHT22;50188;48.114;-1.388;2022-11-15T11:11:45;14.70;99.90
61765;DHT22;50188;48.114;-1.388;2022-11-15T11:14:13;14.80;99.90
61765;DHT22;50188;48.114;-1.388;2022-11-15T11:16:46;14.70;99.90
61765;DHT22;50188;48.114;-1.388;2022-11-15T11:19:37;14.70;99.90
61765;DHT22;50188;48.114;-1.388;2022-11-15T11:22:25;14.70;99.90
61765;DHT22;50188;48.114;-1.388;2022-11-15T11:28:17;14.80;99.90
61765;DHT22;50188;48.114;-1.388;2022-11-15T11:31:24;14.80;99.90
61765;DHT22;50188;48.114;-1.388;2022-11-15T11:34:29;14.80;99.90
61765;DHT22;50188;48.114;-1.388;2022-11-15T11:37:07;14.80;99.90
61765;DHT22;50188;48.114;-1.388;2022-11-15T11:40:21;15.00;99.90
61765;DHT22;50188;48.114;-1.388;2022-11-15T11:43:04;15.00;99.90
61765;DHT22;50188;48.114;-1.388;2022-11-15T11:45:59;15.00;99.90
61765;DHT22;50188;48.114;-1.388;2022-11-15T11:48:48;15.00;99.90
61765;DHT22;50188;48.114;-1.388;2022-11-15T11:51:28;15.20;99.90
61765;DHT22;50188;48.114;-1.388;2022-11-15T11:54:17;15.30;99.90
61765;DHT22;50188;48.114;-1.388;2022-11-15T11:56:45;15.50;99.90
61765;DHT22;50188;48.114;-1.388;2022-11-15T11:59:32;15.50;99.90
61765;DHT22;50188;48.114;-1.388;2022-11-15T12:02:09;15.50;99.90
61765;DHT22;50188;48.114;-1.388;2022-11-15T12:04:40;15.40;99.90
61765;DHT22;50188;48.114;-1.388;2022-11-15T12:07:27;15.50;99.90
61765;DHT22;50188;48.114;-1.388;2022-11-15T12:13:15;15.50;99.90
61765;DHT22;50188;48.114;-1.388;2022-11-15T12:15:59;15.80;99.90
61765;DHT22;50188;48.114;-1.388;2022-11-15T12:18:28;15.80;99.90
61765;DHT22;50188;48.114;-1.388;2022-11-15T12:21:01;15.90;99.90
61765;DHT22;50188;48.114;-1.388;2022-11-15T12:23:32;15.90;99.90
61765;DHT22;50188;48.114;-1.388;2022-11-15T12:26:10;15.90;99.90
61765;DHT22;50188;48.114;-1.388;2022-11-15T12:29:00;15.90;99.30
61765;DHT22;50188;48.114;-1.388;2022-11-15T12:31:44;16.00;99.50
61765;DHT22;50188;48.114;-1.388;2022-11-15T12:34:35;16.00;99.30
61765;DHT22;50188;48.114;-1.388;2022-11-15T12:37:02;16.00;98.90
61765;DHT22;50188;48.114;-1.388;2022-11-15T12:40:18;16.10;99.20
61765;DHT22;50188;48.114;-1.388;2022-11-15T12:43:32;16.10;98.70
61765;DHT22;50188;48.114;-1.388;2022-11-15T12:45:50;16.10;99.60
61765;DHT22;50188;48.114;-1.388;2022-11-15T12:48:46;16.10;99.40
61765;DHT22;50188;48.114;-1.388;2022-11-15T12:51:12;16.20;99.60
61765;DHT22;50188;48.114;-1.388;2022-11-15T12:53:38;16.00;98.90
61765;DHT22;50188;48.114;-1.388;2022-11-15T12:56:20;16.00;99.00
61765;DHT22;50188;48.114;-1.388;2022-11-15T12:58:58;16.10;99.10
61765;DHT22;50188;48.114;-1.388;2022-11-15T13:01:52;16.10;99.10
61765;DHT22;50188;48.114;-1.388;2022-11-15T13:04:25;16.10;98.70
61765;DHT22;50188;48.114;-1.388;2022-11-15T13:07:00;16.10;98.80
61765;DHT22;50188;48.114;-1.388;2022-11-15T13:09:50;16.20;99.00
61765;DHT22;50188;48.114;-1.388;2022-11-15T13:12:49;16.10;98.20
61765;DHT22;50188;48.114;-1.388;2022-11-15T13:15:39;16.10;96.70
61765;DHT22;50188;48.114;-1.388;2022-11-15T13:18:29;16.00;95.40
61765;DHT22;50188;48.114;-1.388;2022-11-15T13:20:55;16.00;94.80
61765;DHT22;50188;48.114;-1.388;2022-11-15T13:23:22;15.90;95.90
61765;DHT22;50188;48.114;-1.388;2022-11-15T13:26:14;15.90;95.80
61765;DHT22;50188;48.114;-1.388;2022-11-15T13:28:47;15.80;96.00
61765;DHT22;50188;48.114;-1.388;2022-11-15T13:31:39;15.80;96.50
61765;DHT22;50188;48.114;-1.388;2022-11-15T13:34:26;15.70;96.10
61765;DHT22;50188;48.114;-1.388;2022-11-15T13:36:53;15.60;95.90
61765;DHT22;50188;48.114;-1.388;2022-11-15T13:39:30;15.50;96.10
61765;DHT22;50188;48.114;-1.388;2022-11-15T13:41:56;15.40;96.10
61765;DHT22;50188;48.114;-1.388;2022-11-15T13:44:25;15.20;96.50
61765;DHT22;50188;48.114;-1.388;2022-11-15T13:47:15;15.20;96.80
61765;DHT22;50188;48.114;-1.388;2022-11-15T13:49:41;15.20;97.00
61765;DHT22;50188;48.114;-1.388;2022-11-15T13:52:12;15.20;97.30
61765;DHT22;50188;48.114;-1.388;2022-11-15T13:54:44;15.20;97.70
61765;DHT22;50188;48.114;-1.388;2022-11-15T13:57:21;15.20;97.80
61765;DHT22;50188;48.114;-1.388;2022-11-15T13:59:50;15.20;98.00
61765;DHT22;50188;48.114;-1.388;2022-11-15T14:02:25;15.20;98.10
61765;DHT22;50188;48.114;-1.388;2022-11-15T14:04:57;15.20;98.20
61765;DHT22;50188;48.114;-1.388;2022-11-15T14:07:25;15.20;98.40
61765;DHT22;50188;48.114;-1.388;2022-11-15T14:09:52;15.20;98.40
61765;DHT22;50188;48.114;-1.388;2022-11-15T14:12:32;15.20;98.40
61765;DHT22;50188;48.114;-1.388;2022-11-15T14:15:00;15.20;98.50
61765;DHT22;50188;48.114;-1.388;2022-11-15T14:17:36;15.20;98.40
61765;DHT22;50188;48.114;-1.388;2022-11-15T14:20:18;15.20;98.30
61765;DHT22;50188;48.114;-1.388;2022-11-15T14:22:52;15.20;98.30
61765;DHT22;50188;48.114;-1.388;2022-11-15T14:25:21;15.30;98.20
61765;DHT22;50188;48.114;-1.388;2022-11-15T14:28:08;15.30;98.20
61765;DHT22;50188;48.114;-1.388;2022-11-15T14:30:34;15.40;97.80
61765;DHT22;50188;48.114;-1.388;2022-11-15T14:33:00;15.40;97.80
61765;DHT22;50188;48.114;-1.388;2022-11-15T14:35:25;15.40;97.80
61765;DHT22;50188;48.114;-1.388;2022-11-15T14:37:51;15.40;97.50
61765;DHT22;50188;48.114;-1.388;2022-11-15T14:40:19;15.20;97.30
61765;DHT22;50188;48.114;-1.388;2022-11-15T14:42:46;15.10;95.80
61765;DHT22;50188;48.114;-1.388;2022-11-15T14:45:20;15.00;95.20
61765;DHT22;50188;48.114;-1.388;2022-11-15T14:47:46;14.90;93.80
61765;DHT22;50188;48.114;-1.388;2022-11-15T14:50:18;15.00;95.00
61765;DHT22;50188;48.114;-1.388;2022-11-15T14:52:44;15.20;94.00
61765;DHT22;50188;48.114;-1.388;2022-11-15T14:55:27;15.20;94.30
61765;DHT22;50188;48.114;-1.388;2022-11-15T14:57:54;15.20;93.80
61765;DHT22;50188;48.114;-1.388;2022-11-15T15:00:20;15.20;94.00
61765;DHT22;50188;48.114;-1.388;2022-11-15T15:02:48;15.10;93.80
61765;DHT22;50188;48.114;-1.388;2022-11-15T15:05:22;15.00;93.30
61765;DHT22;50188;48.114;-1.388;2022-11-15T15:07:49;15.00;93.10
61765;DHT22;50188;48.114;-1.388;2022-11-15T15:10:15;14.90;92.70
61765;DHT22;50188;48.114;-1.388;2022-11-15T15:12:42;14.80;92.80
61765;DHT22;50188;48.114;-1.388;2022-11-15T15:15:16;14.80;93.00
61765;DHT22;50188;48.114;-1.388;2022-11-15T15:17:43;14.80;93.20
61765;DHT22;50188;48.114;-1.388;2022-11-15T15:20:09;14.70;93.20
61765;DHT22;50188;48.114;-1.388;2022-11-15T15:22:35;14.70;93.40
61765;DHT22;50188;48.114;-1.388;2022-11-15T15:25:02;14.70;93.60
61765;DHT22;50188;48.114;-1.388;2022-11-15T15:27:29;14.70;93.40
61765;DHT22;50188;48.114;-1.388;2022-11-15T15:29:54;14.70;93.70
61765;DHT22;50188;48.114;-1.388;2022-11-15T15:32:20;14.70;94.00
61765;DHT22;50188;48.114;-1.388;2022-11-15T15:34:46;14.60;93.60
61765;DHT22;50188;48.114;-1.388;2022-11-15T15:37:24;14.50;93.50
61765;DHT22;50188;48.114;-1.388;2022-11-15T15:39:51;14.50;93.80
61765;DHT22;50188;48.114;-1.388;2022-11-15T15:42:18;14.40;93.80
61765;DHT22;50188;48.114;-1.388;2022-11-15T15:44:43;14.40;93.40
61765;DHT22;50188;48.114;-1.388;2022-11-15T15:47:18;14.30;92.80
61765;DHT22;50188;48.114;-1.388;2022-11-15T15:49:44;14.30;92.90
61765;DHT22;50188;48.114;-1.388;2022-11-15T15:52:10;14.30;92.70
61765;DHT22;50188;48.114;-1.388;2022-11-15T15:54:37;14.20;92.80
61765;DHT22;50188;48.114;-1.388;2022-11-15T15:57:03;14.20;92.90
61765;DHT22;50188;48.114;-1.388;2022-11-15T15:59:28;14.10;92.80
61765;DHT22;50188;48.114;-1.388;2022-11-15T16:01:54;14.10;92.40